sensor_id;sensor_type;location;lat;lon;timestamp;temperature;humidity
72320;SHT30;60269;52.502;16.732;2023-05-10T00:00:46;8.80;60.02
72320;SHT30;60269;52.502;16.732;2023-05-10T00:04:18;8.70;60.39
72320;SHT30;60269;52.502;16.732;2023-05-10T00:07:50;8.65;60.58
72320;SHT30;60269;52.502;16.732;2023-05-10T00:11:22;8.60;60.28
72320;SHT30;60269;52.502;16.732;2023-05-10T00:14:56;8.50;60.95
72320;SHT30;60269;52.502;16.732;2023-05-10T00:18:28;8.44;60.85
72320;SHT30;60269;52.502;16.732;2023-05-10T00:22:00;8.48;60.46
72320;SHT30;60269;52.502;16.732;2023-05-10T00:25:32;8.38;60.79
72320;SHT30;60269;52.502;16.732;2023-05-10T00:29:04;8.25;61.18
72320;SHT30;60269;52.502;16.732;2023-05-10T00:32:35;8.21;61.30
72320;SHT30;60269;52.502;16.732;2023-05-10T00:36:11;8.21;61.41
72320;SHT30;60269;52.502;16.732;2023-05-10T00:39:43;8.15;61.38
72320;SHT30;60269;52.502;16.732;2023-05-10T00:43:15;8.22;61.18
72320;SHT30;60269;52.502;16.732;2023-05-10T00:46:48;8.11;61.32
72320;SHT30;60269;52.502;16.732;2023-05-10T00:50:22;8.12;61.10
72320;SHT30;60269;52.502;16.732;2023-05-10T00:53:54;8.08;61.15
72320;SHT30;60269;52.502;16.732;2023-05-10T00:57:27;8.11;61.20
72320;SHT30;60269;52.502;16.732;2023-05-10T01:01:00;7.97;61.89
72320;SHT30;60269;52.502;16.732;2023-05-10T01:04:32;7.86;62.20
72320;SHT30;60269;52.502;16.732;2023-05-10T01:08:05;7.80;62.42
72320;SHT30;60269;52.502;16.732;2023-05-10T01:11:39;7.81;62.19
72320;SHT30;60269;52.502;16.732;2023-05-10T01:15:14;7.71;62.64
72320;SHT30;60269;52.502;16.732;2023-05-10T01:18:48;7.66;62.97
72320;SHT30;60269;52.502;16.732;2023-05-10T01:34:34;7.33;64.26
72320;SHT30;60269;52.502;16.732;2023-05-10T01:41:52;7.26;64.44
72320;SHT30;60269;52.502;16.732;2023-05-10T01:45:37;7.28;64.53
72320;SHT30;60269;52.502;16.732;2023-05-10T01:49:17;7.16;64.86
72320;SHT30;60269;52.502;16.732;2023-05-10T01:52:53;7.18;65.08
72320;SHT30;60269;52.502;16.732;2023-05-10T01:56:28;7.01;65.81
72320;SHT30;60269;52.502;16.732;2023-05-10T02:00:03;7.02;65.62
72320;SHT30;60269;52.502;16.732;2023-05-10T02:03:36;7.01;65.60
72320;SHT30;60269;52.502;16.732;2023-05-10T02:07:10;6.90;65.82
72320;SHT30;60269;52.502;16.732;2023-05-10T02:10:45;6.97;66.12
72320;SHT30;60269;52.502;16.732;2023-05-10T02:14:18;6.85;66.26
72320;SHT30;60269;52.502;16.732;2023-05-10T02:17:54;6.88;66.08
72320;SHT30;60269;52.502;16.732;2023-05-10T02:21:28;6.90;66.03
72320;SHT30;60269;52.502;16.732;2023-05-10T02:25:00;6.79;66.32
72320;SHT30;60269;52.502;16.732;2023-05-10T02:28:35;6.77;66.65
72320;SHT30;60269;52.502;16.732;2023-05-10T02:32:08;6.73;66.59
72320;SHT30;60269;52.502;16.732;2023-05-10T02:35:41;6.72;66.58
72320;SHT30;60269;52.502;16.732;2023-05-10T02:39:14;6.57;67.40
72320;SHT30;60269;52.502;16.732;2023-05-10T02:42:48;6.60;67.19
72320;SHT30;60269;52.502;16.732;2023-05-10T02:46:23;6.46;67.91
72320;SHT30;60269;52.502;16.732;2023-05-10T02:49:55;6.44;68.05
72320;SHT30;60269;52.502;16.732;2023-05-10T02:53:31;6.43;68.02
72320;SHT30;60269;52.502;16.732;2023-05-10T02:57:05;6.47;67.87
72320;SHT30;60269;52.502;16.732;2023-05-10T03:00:38;6.50;67.53
72320;SHT30;60269;52.502;16.732;2023-05-10T03:04:09;6.49;67.67
72320;SHT30;60269;52.502;16.732;2023-05-10T03:07:42;6.43;67.94
72320;SHT30;60269;52.502;16.732;2023-05-10T03:19:08;6.35;68.53
72320;SHT30;60269;52.502;16.732;2023-05-10T03:22:55;6.40;68.27
72320;SHT30;60269;52.502;16.732;2023-05-10T03:26:32;6.37;68.90
72320;SHT30;60269;52.502;16.732;2023-05-10T03:30:06;6.43;67.97
72320;SHT30;60269;52.502;16.732;2023-05-10T03:33:51;6.43;68.49
72320;SHT30;60269;52.502;16.732;2023-05-10T03:37:25;6.54;67.78
72320;SHT30;60269;52.502;16.732;2023-05-10T03:40:57;6.58;67.84
72320;SHT30;60269;52.502;16.732;2023-05-10T03:44:29;6.60;67.85
72320;SHT30;60269;52.502;16.732;2023-05-10T03:48:01;6.63;67.91
72320;SHT30;60269;52.502;16.732;2023-05-10T03:51:34;6.62;68.25
72320;SHT30;60269;52.502;16.732;2023-05-10T03:55:06;6.69;68.11
72320;SHT30;60269;52.502;16.732;2023-05-10T03:58:38;6.79;67.99
72320;SHT30;60269;52.502;16.732;2023-05-10T04:02:11;6.97;66.69
72320;SHT30;60269;52.502;16.732;2023-05-10T04:05:43;7.02;67.25
72320;SHT30;60269;52.502;16.732;2023-05-10T04:09:15;7.14;66.90
72320;SHT30;60269;52.502;16.732;2023-05-10T04:12:50;7.28;66.68
72320;SHT30;60269;52.502;16.732;2023-05-10T04:16:24;7.21;66.61
72320;SHT30;60269;52.502;16.732;2023-05-10T04:19:56;7.26;66.80
72320;SHT30;60269;52.502;16.732;2023-05-10T04:23:28;7.35;66.47
72320;SHT30;60269;52.502;16.732;2023-05-10T04:27:00;7.55;65.49
72320;SHT30;60269;52.502;16.732;2023-05-10T04:30:32;7.65;66.09
72320;SHT30;60269;52.502;16.732;2023-05-10T04:34:04;7.81;66.17
72320;SHT30;60269;52.502;16.732;2023-05-10T04:37:36;7.87;65.51
72320;SHT30;60269;52.502;16.732;2023-05-10T04:41:10;7.95;65.32
72320;SHT30;60269;52.502;16.732;2023-05-10T04:44:42;8.14;65.35
72320;SHT30;60269;52.502;16.732;2023-05-10T04:48:14;8.21;64.51
72320;SHT30;60269;52.502;16.732;2023-05-10T04:51:49;8.44;64.59
72320;SHT30;60269;52.502;16.732;2023-05-10T04:55:21;8.59;63.89
72320;SHT30;60269;52.502;16.732;2023-05-10T04:58:53;8.89;63.98
72320;SHT30;60269;52.502;16.732;2023-05-10T05:02:25;9.03;62.34
72320;SHT30;60269;52.502;16.732;2023-05-10T05:05:57;9.23;62.34
72320;SHT30;60269;52.502;16.732;2023-05-10T05:09:29;9.76;60.13
72320;SHT30;60269;52.502;16.732;2023-05-10T05:13:01;10.41;59.35
72320;SHT30;60269;52.502;16.732;2023-05-10T05:16:33;10.89;57.75
72320;SHT30;60269;52.502;16.732;2023-05-10T05:20:06;11.03;56.27
72320;SHT30;60269;52.502;16.732;2023-05-10T05:23:38;11.57;55.15
72320;SHT30;60269;52.502;16.732;2023-05-10T05:27:10;11.71;54.60
72320;SHT30;60269;52.502;16.732;2023-05-10T05:30:42;12.21;52.97
72320;SHT30;60269;52.502;16.732;2023-05-10T05:34:15;12.37;53.75
72320;SHT30;60269;52.502;16.732;2023-05-10T05:37:47;12.36;52.96
72320;SHT30;60269;52.502;16.732;2023-05-10T05:41:19;12.66;52.33
72320;SHT30;60269;52.502;16.732;2023-05-10T05:44:51;12.83;52.00
72320;SHT30;60269;52.502;16.732;2023-05-10T05:48:23;12.87;51.39
72320;SHT30;60269;52.502;16.732;2023-05-10T05:52:01;12.86;51.55
72320;SHT30;60269;52.502;16.732;2023-05-10T05:55:33;12.84;50.75
72320;SHT30;60269;52.502;16.732;2023-05-10T05:59:05;13.32;51.47
72320;SHT30;60269;52.502;16.732;2023-05-10T06:02:37;13.31;50.87
72320;SHT30;60269;52.502;16.732;2023-05-10T06:06:11;13.56;51.91
72320;SHT30;60269;52.502;16.732;2023-05-10T06:09:44;14.00;50.39
72320;SHT30;60269;52.502;16.732;2023-05-10T06:13:16;13.99;48.85
72320;SHT30;60269;52.502;16.732;2023-05-10T06:16:48;14.25;49.05
72320;SHT30;60269;52.502;16.732;2023-05-10T06:20:21;14.06;49.76
72320;SHT30;60269;52.502;16.732;2023-05-10T06:23:57;14.57;48.35
72320;SHT30;60269;52.502;16.732;2023-05-10T06:27:29;14.82;47.54
72320;SHT30;60269;52.502;16.732;2023-05-10T06:31:02;14.44;48.21
72320;SHT30;60269;52.502;16.732;2023-05-10T06:34:34;14.71;48.88
72320;SHT30;60269;52.502;16.732;2023-05-10T06:38:06;14.31;49.72
72320;SHT30;60269;52.502;16.732;2023-05-10T06:41:38;14.64;46.97
72320;SHT30;60269;52.502;16.732;2023-05-10T06:45:11;14.52;48.12
72320;SHT30;60269;52.502;16.732;2023-05-10T06:48:43;15.00;48.02
72320;SHT30;60269;52.502;16.732;2023-05-10T06:52:15;14.93;48.24
72320;SHT30;60269;52.502;16.732;2023-05-10T06:55:48;15.59;46.83
72320;SHT30;60269;52.502;16.732;2023-05-10T06:59:23;15.24;46.70
72320;SHT30;60269;52.502;16.732;2023-05-10T07:02:55;15.64;45.47
72320;SHT30;60269;52.502;16.732;2023-05-10T07:06:29;15.92;45.50
72320;SHT30;60269;52.502;16.732;2023-05-10T07:10:05;15.78;46.14
72320;SHT30;60269;52.502;16.732;2023-05-10T07:13:37;15.71;45.94
72320;SHT30;60269;52.502;16.732;2023-05-10T07:17:11;15.95;45.97
72320;SHT30;60269;52.502;16.732;2023-05-10T07:20:42;15.91;44.88
72320;SHT30;60269;52.502;16.732;2023-05-10T07:24:15;15.99;44.42
72320;SHT30;60269;52.502;16.732;2023-05-10T07:27:47;16.53;44.70
72320;SHT30;60269;52.502;16.732;2023-05-10T07:31:20;16.20;45.14
72320;SHT30;60269;52.502;16.732;2023-05-10T07:34:52;16.09;45.82
72320;SHT30;60269;52.502;16.732;2023-05-10T07:38:24;16.61;45.14
72320;SHT30;60269;52.502;16.732;2023-05-10T07:41:56;16.52;43.85
72320;SHT30;60269;52.502;16.732;2023-05-10T07:45:28;16.61;45.02
72320;SHT30;60269;52.502;16.732;2023-05-10T07:49:00;17.07;43.50
72320;SHT30;60269;52.502;16.732;2023-05-10T07:52:33;17.50;42.64
72320;SHT30;60269;52.502;16.732;2023-05-10T07:56:26;17.67;44.46
72320;SHT30;60269;52.502;16.732;2023-05-10T08:00:06;17.43;45.52
72320;SHT30;60269;52.502;16.732;2023-05-10T08:03:39;17.91;43.41
72320;SHT30;60269;52.502;16.732;2023-05-10T08:07:11;17.94;41.34
72320;SHT30;60269;52.502;16.732;2023-05-10T08:10:44;18.48;43.06
72320;SHT30;60269;52.502;16.732;2023-05-10T08:14:16;17.80;41.75
72320;SHT30;60269;52.502;16.732;2023-05-10T08:17:48;18.49;41.46
72320;SHT30;60269;52.502;16.732;2023-05-10T08:21:21;19.20;41.20
72320;SHT30;60269;52.502;16.732;2023-05-10T08:24:52;19.21;41.18
72320;SHT30;60269;52.502;16.732;2023-05-10T08:28:25;19.75;39.96
72320;SHT30;60269;52.502;16.732;2023-05-10T08:31:56;19.59;40.92
72320;SHT30;60269;52.502;16.732;2023-05-10T08:35:29;19.69;40.29
72320;SHT30;60269;52.502;16.732;2023-05-10T08:39:00;19.76;39.27
72320;SHT30;60269;52.502;16.732;2023-05-10T08:42:34;19.11;39.32
72320;SHT30;60269;52.502;16.732;2023-05-10T08:46:10;19.20;42.66
72320;SHT30;60269;52.502;16.732;2023-05-10T08:49:43;20.09;38.63
72320;SHT30;60269;52.502;16.732;2023-05-10T08:53:16;20.45;37.73
72320;SHT30;60269;52.502;16.732;2023-05-10T08:56:49;20.74;37.23
72320;SHT30;60269;52.502;16.732;2023-05-10T09:00:21;20.55;38.45
72320;SHT30;60269;52.502;16.732;2023-05-10T09:03:55;20.09;38.66
72320;SHT30;60269;52.502;16.732;2023-05-10T09:07:27;20.58;36.51
72320;SHT30;60269;52.502;16.732;2023-05-10T09:11:00;20.31;35.84
72320;SHT30;60269;52.502;16.732;2023-05-10T09:14:34;20.29;36.70
72320;SHT30;60269;52.502;16.732;2023-05-10T09:18:07;20.24;38.98
72320;SHT30;60269;52.502;16.732;2023-05-10T09:21:40;20.87;37.93
72320;SHT30;60269;52.502;16.732;2023-05-10T09:25:14;20.84;34.71
72320;SHT30;60269;52.502;16.732;2023-05-10T09:28:55;19.31;35.98
72320;SHT30;60269;52.502;16.732;2023-05-10T09:32:37;20.40;35.51
72320;SHT30;60269;52.502;16.732;2023-05-10T09:36:11;21.35;33.32
72320;SHT30;60269;52.502;16.732;2023-05-10T09:39:45;21.70;31.13
72320;SHT30;60269;52.502;16.732;2023-05-10T09:43:17;21.60;31.18
72320;SHT30;60269;52.502;16.732;2023-05-10T09:46:50;20.77;31.88
72320;SHT30;60269;52.502;16.732;2023-05-10T09:50:24;20.29;34.09
72320;SHT30;60269;52.502;16.732;2023-05-10T09:54:14;20.67;32.93
72320;SHT30;60269;52.502;16.732;2023-05-10T09:57:47;20.68;32.53
72320;SHT30;60269;52.502;16.732;2023-05-10T10:01:20;21.06;31.62
72320;SHT30;60269;52.502;16.732;2023-05-10T10:04:52;20.41;33.11
72320;SHT30;60269;52.502;16.732;2023-05-10T10:08:26;20.10;32.68
72320;SHT30;60269;52.502;16.732;2023-05-10T10:11:59;21.45;31.80
72320;SHT30;60269;52.502;16.732;2023-05-10T10:15:34;22.04;31.49
72320;SHT30;60269;52.502;16.732;2023-05-10T10:19:07;21.85;30.84
72320;SHT30;60269;52.502;16.732;2023-05-10T10:22:39;21.95;30.40
72320;SHT30;60269;52.502;16.732;2023-05-10T10:26:12;22.21;29.23
72320;SHT30;60269;52.502;16.732;2023-05-10T10:29:52;20.85;32.80
72320;SHT30;60269;52.502;16.732;2023-05-10T10:37:19;21.25;33.26
72320;SHT30;60269;52.502;16.732;2023-05-10T10:41:11;21.18;34.87
72320;SHT30;60269;52.502;16.732;2023-05-10T10:45:25;22.60;30.80
72320;SHT30;60269;52.502;16.732;2023-05-10T10:49:10;21.51;31.90
72320;SHT30;60269;52.502;16.732;2023-05-10T10:52:45;21.73;33.47
72320;SHT30;60269;52.502;16.732;2023-05-10T10:56:21;23.38;31.11
72320;SHT30;60269;52.502;16.732;2023-05-10T11:00:20;23.51;29.65
72320;SHT30;60269;52.502;16.732;2023-05-10T11:07:51;23.14;29.32
72320;SHT30;60269;52.502;16.732;2023-05-10T11:11:23;21.15;30.67
72320;SHT30;60269;52.502;16.732;2023-05-10T11:14:58;21.40;31.98
72320;SHT30;60269;52.502;16.732;2023-05-10T11:18:30;23.07;29.20
72320;SHT30;60269;52.502;16.732;2023-05-10T11:25:42;24.14;28.26
72320;SHT30;60269;52.502;16.732;2023-05-10T11:29:15;23.54;29.19
72320;SHT30;60269;52.502;16.732;2023-05-10T11:32:48;23.86;28.88
72320;SHT30;60269;52.502;16.732;2023-05-10T11:36:23;23.85;29.54
72320;SHT30;60269;52.502;16.732;2023-05-10T11:39:55;22.15;28.88
72320;SHT30;60269;52.502;16.732;2023-05-10T11:43:28;22.19;33.06
72320;SHT30;60269;52.502;16.732;2023-05-10T11:47:02;22.52;33.16
72320;SHT30;60269;52.502;16.732;2023-05-10T11:50:35;22.59;32.56
72320;SHT30;60269;52.502;16.732;2023-05-10T11:54:08;23.38;28.87
72320;SHT30;60269;52.502;16.732;2023-05-10T11:57:41;24.03;29.42
72320;SHT30;60269;52.502;16.732;2023-05-10T12:01:16;24.72;28.54
72320;SHT30;60269;52.502;16.732;2023-05-10T12:04:48;25.09;29.35
72320;SHT30;60269;52.502;16.732;2023-05-10T12:08:25;24.61;28.51
72320;SHT30;60269;52.502;16.732;2023-05-10T12:11:57;24.72;29.29
72320;SHT30;60269;52.502;16.732;2023-05-10T12:15:29;24.37;29.04
72320;SHT30;60269;52.502;16.732;2023-05-10T12:19:01;23.95;30.27
72320;SHT30;60269;52.502;16.732;2023-05-10T12:22:34;23.20;30.37
72320;SHT30;60269;52.502;16.732;2023-05-10T12:26:09;25.18;28.53
72320;SHT30;60269;52.502;16.732;2023-05-10T12:29:42;24.91;29.49
72320;SHT30;60269;52.502;16.732;2023-05-10T12:33:17;25.90;26.28
72320;SHT30;60269;52.502;16.732;2023-05-10T12:36:51;25.42;27.60
72320;SHT30;60269;52.502;16.732;2023-05-10T12:40:24;23.85;29.19
72320;SHT30;60269;52.502;16.732;2023-05-10T12:43:56;24.44;28.45
72320;SHT30;60269;52.502;16.732;2023-05-10T12:47:28;24.95;27.31
72320;SHT30;60269;52.502;16.732;2023-05-10T12:51:01;24.05;29.98
72320;SHT30;60269;52.502;16.732;2023-05-10T12:54:33;23.88;27.74
72320;SHT30;60269;52.502;16.732;2023-05-10T12:58:05;24.10;30.06
72320;SHT30;60269;52.502;16.732;2023-05-10T13:01:37;23.78;30.18
72320;SHT30;60269;52.502;16.732;2023-05-10T13:05:09;24.05;30.82
72320;SHT30;60269;52.502;16.732;2023-05-10T13:08:43;24.31;31.15
72320;SHT30;60269;52.502;16.732;2023-05-10T13:12:15;23.69;30.55
72320;SHT30;60269;52.502;16.732;2023-05-10T13:15:47;23.85;30.13
72320;SHT30;60269;52.502;16.732;2023-05-10T13:19:18;24.33;28.89
72320;SHT30;60269;52.502;16.732;2023-05-10T13:22:54;24.64;28.60
72320;SHT30;60269;52.502;16.732;2023-05-10T13:26:26;23.57;29.88
72320;SHT30;60269;52.502;16.732;2023-05-10T13:29:58;25.37;28.86
72320;SHT30;60269;52.502;16.732;2023-05-10T13:33:31;24.16;29.66
72320;SHT30;60269;52.502;16.732;2023-05-10T13:37:02;24.16;31.22
72320;SHT30;60269;52.502;16.732;2023-05-10T13:40:34;22.45;32.33
72320;SHT30;60269;52.502;16.732;2023-05-10T13:44:07;22.87;31.24
72320;SHT30;60269;52.502;16.732;2023-05-10T13:47:39;23.57;29.04
72320;SHT30;60269;52.502;16.732;2023-05-10T13:51:12;22.82;33.04
72320;SHT30;60269;52.502;16.732;2023-05-10T13:54:44;23.57;31.42
72320;SHT30;60269;52.502;16.732;2023-05-10T13:58:16;23.28;29.97
72320;SHT30;60269;52.502;16.732;2023-05-10T14:01:48;24.44;29.71
72320;SHT30;60269;52.502;16.732;2023-05-10T14:05:20;24.51;30.21
72320;SHT30;60269;52.502;16.732;2023-05-10T14:08:57;24.43;30.44
72320;SHT30;60269;52.502;16.732;2023-05-10T14:12:29;23.72;32.76
72320;SHT30;60269;52.502;16.732;2023-05-10T14:16:01;23.78;30.68
72320;SHT30;60269;52.502;16.732;2023-05-10T14:19:33;24.60;29.16
72320;SHT30;60269;52.502;16.732;2023-05-10T14:23:06;24.95;29.09
72320;SHT30;60269;52.502;16.732;2023-05-10T14:26:39;26.19;27.59
72320;SHT30;60269;52.502;16.732;2023-05-10T14:30:12;27.31;25.77
72320;SHT30;60269;52.502;16.732;2023-05-10T14:33:44;25.12;28.32
72320;SHT30;60269;52.502;16.732;2023-05-10T14:37:36;23.96;29.60
72320;SHT30;60269;52.502;16.732;2023-05-10T14:41:33;23.14;31.54
72320;SHT30;60269;52.502;16.732;2023-05-10T14:45:31;23.76;31.02
72320;SHT30;60269;52.502;16.732;2023-05-10T14:49:03;24.47;30.09
72320;SHT30;60269;52.502;16.732;2023-05-10T14:52:35;24.33;30.09
72320;SHT30;60269;52.502;16.732;2023-05-10T14:56:07;24.41;30.12
72320;SHT30;60269;52.502;16.732;2023-05-10T14:59:39;23.06;31.79
72320;SHT30;60269;52.502;16.732;2023-05-10T15:03:12;21.54;34.83
72320;SHT30;60269;52.502;16.732;2023-05-10T15:06:44;21.93;33.76
72320;SHT30;60269;52.502;16.732;2023-05-10T15:10:17;23.54;33.12
72320;SHT30;60269;52.502;16.732;2023-05-10T15:13:49;25.46;30.26
72320;SHT30;60269;52.502;16.732;2023-05-10T15:17:21;24.16;31.44
72320;SHT30;60269;52.502;16.732;2023-05-10T15:20:53;22.90;33.19
72320;SHT30;60269;52.502;16.732;2023-05-10T15:24:28;22.97;33.18
72320;SHT30;60269;52.502;16.732;2023-05-10T15:28:08;23.06;32.73
72320;SHT30;60269;52.502;16.732;2023-05-10T15:31:39;22.97;32.82
72320;SHT30;60269;52.502;16.732;2023-05-10T15:35:12;21.84;34.78
72320;SHT30;60269;52.502;16.732;2023-05-10T15:38:45;21.87;34.96
72320;SHT30;60269;52.502;16.732;2023-05-10T15:42:16;21.50;35.27
72320;SHT30;60269;52.502;16.732;2023-05-10T15:45:48;21.50;35.49
72320;SHT30;60269;52.502;16.732;2023-05-10T15:49:20;22.36;35.07
72320;SHT30;60269;52.502;16.732;2023-05-10T15:52:52;22.55;32.91
72320;SHT30;60269;52.502;16.732;2023-05-10T15:56:24;21.94;36.19
72320;SHT30;60269;52.502;16.732;2023-05-10T15:59:57;22.16;35.52
72320;SHT30;60269;52.502;16.732;2023-05-10T16:03:29;23.06;33.45
72320;SHT30;60269;52.502;16.732;2023-05-10T16:07:04;23.00;33.96
72320;SHT30;60269;52.502;16.732;2023-05-10T16:10:36;22.69;35.50
72320;SHT30;60269;52.502;16.732;2023-05-10T16:14:09;22.74;33.19
72320;SHT30;60269;52.502;16.732;2023-05-10T16:17:41;21.91;35.26
72320;SHT30;60269;52.502;16.732;2023-05-10T16:21:14;22.31;34.89
72320;SHT30;60269;52.502;16.732;2023-05-10T16:24:48;23.12;33.32
72320;SHT30;60269;52.502;16.732;2023-05-10T16:28:24;23.18;33.45
72320;SHT30;60269;52.502;16.732;2023-05-10T16:31:56;22.76;34.46
72320;SHT30;60269;52.502;16.732;2023-05-10T16:35:28;22.34;35.18
72320;SHT30;60269;52.502;16.732;2023-05-10T16:39:00;21.57;35.36
72320;SHT30;60269;52.502;16.732;2023-05-10T16:42:33;22.18;34.60
72320;SHT30;60269;52.502;16.732;2023-05-10T16:46:09;21.66;35.87
72320;SHT30;60269;52.502;16.732;2023-05-10T16:49:42;22.41;34.36
72320;SHT30;60269;52.502;16.732;2023-05-10T16:53:14;21.88;35.47
72320;SHT30;60269;52.502;16.732;2023-05-10T16:56:47;22.53;34.00
72320;SHT30;60269;52.502;16.732;2023-05-10T17:00:19;22.34;34.02
72320;SHT30;60269;52.502;16.732;2023-05-10T17:03:51;21.28;35.61
72320;SHT30;60269;52.502;16.732;2023-05-10T17:07:23;21.58;36.47
72320;SHT30;60269;52.502;16.732;2023-05-10T17:11:00;21.18;35.67
72320;SHT30;60269;52.502;16.732;2023-05-10T17:14:32;21.39;36.20
72320;SHT30;60269;52.502;16.732;2023-05-10T17:18:04;20.61;37.17
72320;SHT30;60269;52.502;16.732;2023-05-10T17:21:39;19.52;38.66
72320;SHT30;60269;52.502;16.732;2023-05-10T17:25:11;20.08;38.58
72320;SHT30;60269;52.502;16.732;2023-05-10T17:28:43;19.87;38.69
72320;SHT30;60269;52.502;16.732;2023-05-10T17:32:15;19.55;38.78
72320;SHT30;60269;52.502;16.732;2023-05-10T17:35:47;19.87;37.96
72320;SHT30;60269;52.502;16.732;2023-05-10T17:39:19;19.96;38.31
72320;SHT30;60269;52.502;16.732;2023-05-10T17:42:52;19.55;38.89
72320;SHT30;60269;52.502;16.732;2023-05-10T17:46:24;19.47;39.08
72320;SHT30;60269;52.502;16.732;2023-05-10T17:49:56;19.13;39.62
72320;SHT30;60269;52.502;16.732;2023-05-10T17:53:28;18.65;40.91
72320;SHT30;60269;52.502;16.732;2023-05-10T17:57:00;17.94;42.50
72320;SHT30;60269;52.502;16.732;2023-05-10T18:00:32;17.83;42.90
72320;SHT30;60269;52.502;16.732;2023-05-10T18:04:04;17.83;42.17
72320;SHT30;60269;52.502;16.732;2023-05-10T18:07:36;17.65;42.71
72320;SHT30;60269;52.502;16.732;2023-05-10T18:11:10;17.15;44.06
72320;SHT30;60269;52.502;16.732;2023-05-10T18:14:42;17.00;44.38
72320;SHT30;60269;52.502;16.732;2023-05-10T18:18:15;16.83;44.67
72320;SHT30;60269;52.502;16.732;2023-05-10T18:21:47;16.44;45.46
72320;SHT30;60269;52.502;16.732;2023-05-10T18:25:20;16.23;46.21
72320;SHT30;60269;52.502;16.732;2023-05-10T18:28:52;16.05;46.69
72320;SHT30;60269;52.502;16.732;2023-05-10T18:32:24;15.89;47.29
72320;SHT30;60269;52.502;16.732;2023-05-10T18:35:59;15.92;47.13
72320;SHT30;60269;52.502;16.732;2023-05-10T18:39:32;15.75;47.36
72320;SHT30;60269;52.502;16.732;2023-05-10T18:43:04;15.79;47.29
72320;SHT30;60269;52.502;16.732;2023-05-10T18:46:36;15.69;47.84
72320;SHT30;60269;52.502;16.732;2023-05-10T18:50:09;15.65;47.71
72320;SHT30;60269;52.502;16.732;2023-05-10T18:53:42;15.72;47.94
72320;SHT30;60269;52.502;16.732;2023-05-10T18:57:14;15.79;47.29
72320;SHT30;60269;52.502;16.732;2023-05-10T19:00:46;15.77;47.63
72320;SHT30;60269;52.502;16.732;2023-05-10T19:04:20;15.58;48.09
72320;SHT30;60269;52.502;16.732;2023-05-10T19:07:52;15.46;48.91
72320;SHT30;60269;52.502;16.732;2023-05-10T19:11:24;15.41;48.68
72320;SHT30;60269;52.502;16.732;2023-05-10T19:14:56;15.26;49.14
72320;SHT30;60269;52.502;16.732;2023-05-10T19:18:29;15.24;49.26
72320;SHT30;60269;52.502;16.732;2023-05-10T19:22:09;15.10;49.70
72320;SHT30;60269;52.502;16.732;2023-05-10T19:26:29;14.89;51.13
72320;SHT30;60269;52.502;16.732;2023-05-10T19:30:03;14.62;51.94
72320;SHT30;60269;52.502;16.732;2023-05-10T19:33:35;14.40;52.86
72320;SHT30;60269;52.502;16.732;2023-05-10T19:37:09;14.22;53.45
72320;SHT30;60269;52.502;16.732;2023-05-10T19:40:41;14.13;54.05
72320;SHT30;60269;52.502;16.732;2023-05-10T19:44:13;14.01;54.83
72320;SHT30;60269;52.502;16.732;2023-05-10T19:47:46;13.91;54.78
72320;SHT30;60269;52.502;16.732;2023-05-10T19:51:18;13.76;55.36
72320;SHT30;60269;52.502;16.732;2023-05-10T19:54:50;13.67;55.76
72320;SHT30;60269;52.502;16.732;2023-05-10T19:58:22;13.67;55.63
72320;SHT30;60269;52.502;16.732;2023-05-10T20:01:55;13.66;55.47
72320;SHT30;60269;52.502;16.732;2023-05-10T20:05:28;13.70;55.05
72320;SHT30;60269;52.502;16.732;2023-05-10T20:08:59;13.69;54.94
72320;SHT30;60269;52.502;16.732;2023-05-10T20:12:31;13.79;54.37
72320;SHT30;60269;52.502;16.732;2023-05-10T20:16:03;13.80;54.12
72320;SHT30;60269;52.502;16.732;2023-05-10T20:19:36;13.82;53.72
72320;SHT30;60269;52.502;16.732;2023-05-10T20:23:08;13.84;53.51
72320;SHT30;60269;52.502;16.732;2023-05-10T20:26:40;13.90;52.91
72320;SHT30;60269;52.502;16.732;2023-05-10T20:30:13;14.00;52.13
72320;SHT30;60269;52.502;16.732;2023-05-10T20:33:46;14.04;51.56
72320;SHT30;60269;52.502;16.732;2023-05-10T20:37:18;14.01;51.94
72320;SHT30;60269;52.502;16.732;2023-05-10T20:40:50;13.93;52.04
72320;SHT30;60269;52.502;16.732;2023-05-10T20:44:23;13.82;52.51
72320;SHT30;60269;52.502;16.732;2023-05-10T20:47:54;13.73;52.35
72320;SHT30;60269;52.502;16.732;2023-05-10T20:51:26;13.63;52.75
72320;SHT30;60269;52.502;16.732;2023-05-10T20:55:01;13.51;53.01
72320;SHT30;60269;52.502;16.732;2023-05-10T20:58:32;13.41;53.36
72320;SHT30;60269;52.502;16.732;2023-05-10T21:02:05;13.32;53.54
72320;SHT30;60269;52.502;16.732;2023-05-10T21:05:37;13.22;54.10
72320;SHT30;60269;52.502;16.732;2023-05-10T21:09:09;13.15;54.12
72320;SHT30;60269;52.502;16.732;2023-05-10T21:12:41;13.11;54.34
72320;SHT30;60269;52.502;16.732;2023-05-10T21:16:14;13.01;54.51
72320;SHT30;60269;52.502;16.732;2023-05-10T21:19:46;13.03;54.51
72320;SHT30;60269;52.502;16.732;2023-05-10T21:23:18;13.01;54.66
72320;SHT30;60269;52.502;16.732;2023-05-10T21:26:50;12.97;54.24
72320;SHT30;60269;52.502;16.732;2023-05-10T21:30:22;12.91;54.57
72320;SHT30;60269;52.502;16.732;2023-05-10T21:33:54;12.81;54.98
72320;SHT30;60269;52.502;16.732;2023-05-10T21:37:26;12.68;55.23
72320;SHT30;60269;52.502;16.732;2023-05-10T21:40:58;12.77;54.60
72320;SHT30;60269;52.502;16.732;2023-05-10T21:44:30;12.68;54.91
72320;SHT30;60269;52.502;16.732;2023-05-10T21:48:03;12.66;55.25
72320;SHT30;60269;52.502;16.732;2023-05-10T21:51:35;12.61;55.05
72320;SHT30;60269;52.502;16.732;2023-05-10T21:55:08;12.49;55.57
72320;SHT30;60269;52.502;16.732;2023-05-10T21:58:40;12.30;56.06
72320;SHT30;60269;52.502;16.732;2023-05-10T22:02:12;12.33;55.67
72320;SHT30;60269;52.502;16.732;2023-05-10T22:05:44;12.29;56.11
72320;SHT30;60269;52.502;16.732;2023-05-10T22:09:17;12.22;56.56
72320;SHT30;60269;52.502;16.732;2023-05-10T22:12:49;12.24;56.55
72320;SHT30;60269;52.502;16.732;2023-05-10T22:16:23;12.28;56.01
72320;SHT30;60269;52.502;16.732;2023-05-10T22:19:55;12.43;55.62
72320;SHT30;60269;52.502;16.732;2023-05-10T22:23:27;12.28;55.86
72320;SHT30;60269;52.502;16.732;2023-05-10T22:27:00;12.17;56.67
72320;SHT30;60269;52.502;16.732;2023-05-10T22:30:32;12.04;56.87
72320;SHT30;60269;52.502;16.732;2023-05-10T22:34:04;11.92;57.08
72320;SHT30;60269;52.502;16.732;2023-05-10T22:37:37;11.91;57.50
72320;SHT30;60269;52.502;16.732;2023-05-10T22:41:09;11.71;58.08
72320;SHT30;60269;52.502;16.732;2023-05-10T22:44:41;11.54;58.65
72320;SHT30;60269;52.502;16.732;2023-05-10T22:48:14;11.39;59.41